Time;durP1;ratioP1;P1;durP2;ratioP2;P2;SDS_P1;SDS_P2;PMS_P1;PMS_P2;Temp;Humidity;BMP_temperature;BMP_pressure;BME280_temperature;BME280_humidity;BME280_pressure;Samples;Min_cycle;Max_cycle;Signal;HPM_P1;HPM_P2
2022/12/18 00:02:23;;;;;;;38.05;13.20;;;;;;;13.33;100.00;100910.58;1757651;81;20887;-79
2022/12/18 00:04:49;;;;;;;38.75;14.23;;;;;;;13.46;100.00;100918.14;1757437;81;21647;-79
2022/12/18 00:07:15;;;;;;;36.15;13.50;;;;;;;13.21;100.00;100922.98;1757325;81;21029;-80
2022/12/18 00:09:41;;;;;;;29.87;12.63;;;;;;;13.35;100.00;100932.23;1757558;81;21533;-80
2022/12/18 00:12:07;;;;;;;27.87;12.15;;;;;;;13.37;100.00;100942.78;1757416;81;20892;-80
2022/12/18 00:14:33;;;;;;;32.38;12.47;;;;;;;13.35;100.00;100953.05;1757424;81;21570;-80
2022/12/18 00:17:00;;;;;;;29.37;11.80;;;;;;;13.11;100.00;100956.23;1757463;81;21034;-80
2022/12/18 00:19:27;;;;;;;23.92;10.05;;;;;;;12.94;100.00;100958.36;1756951;81;21130;-79
2022/12/18 00:21:53;;;;;;;30.02;10.80;;;;;;;13.00;100.00;100951.07;1757393;81;21451;-80
2022/12/18 00:24:19;;;;;;;30.08;10.85;;;;;;;13.06;100.00;100949.48;1756598;81;21070;-79
2022/12/18 00:26:45;;;;;;;26.42;10.68;;;;;;;12.83;100.00;100959.44;1757427;81;21545;-80
2022/12/18 00:29:14;;;;;;;25.62;9.80;;;;;;;12.92;100.00;100965.41;1757915;81;20876;-80
2022/12/18 00:31:42;;;;;;;21.68;8.98;;;;;;;12.81;100.00;100969.15;1757344;81;21167;-80
2022/12/18 00:34:11;;;;;;;21.70;9.25;;;;;;;12.76;100.00;100966.42;1757481;81;21113;-79
2022/12/18 00:39:54;;;;;;;23.02;9.70;;;;;;;13.14;100.00;100974.64;1795629;79;22741;-80
2022/12/18 00:45:05;;;;;;;19.30;7.03;;;;;;;12.93;100.00;101008.95;1757100;81;20973;-80
2022/12/18 00:47:31;;;;;;;20.60;7.33;;;;;;;12.39;100.00;101020.06;1757414;81;21519;-80
2022/12/18 00:49:58;;;;;;;15.75;6.67;;;;;;;12.08;100.00;101030.38;1757536;80;21023;-79
2022/12/18 00:52:24;;;;;;;19.40;7.67;;;;;;;11.76;100.00;101041.43;1757617;81;20957;-80
2022/12/18 00:54:49;;;;;;;17.85;7.87;;;;;;;11.40;100.00;101033.53;1757323;81;21128;-80
2022/12/18 00:57:15;;;;;;;22.25;8.65;;;;;;;11.23;100.00;101040.36;1757438;81;21176;-80
2022/12/18 00:59:41;;;;;;;25.50;9.70;;;;;;;11.27;100.00;101050.95;1757276;81;21034;-80
2022/12/18 01:02:07;;;;;;;23.07;11.33;;;;;;;11.13;100.00;101053.75;1757561;81;20976;-80
2022/12/18 01:04:34;;;;;;;26.30;11.85;;;;;;;10.79;100.00;101061.95;1738306;81;20927;-79
2022/12/18 01:07:00;;;;;;;31.33;12.90;;;;;;;10.50;100.00;101067.20;1757579;81;20952;-80
2022/12/18 01:09:26;;;;;;;26.57;12.40;;;;;;;10.45;100.00;101081.43;1757248;81;21205;-80
2022/12/18 01:11:52;;;;;;;31.30;14.05;;;;;;;10.14;100.00;101081.44;1757417;81;21031;-79
2022/12/18 01:14:18;;;;;;;32.00;13.18;;;;;;;10.04;100.00;101086.67;1757505;81;20978;-80
2022/12/18 01:16:44;;;;;;;26.33;12.28;;;;;;;9.91;100.00;101088.63;1757493;81;20928;-82
2022/12/18 01:19:10;;;;;;;25.95;12.23;;;;;;;9.96;100.00;101095.42;1757497;81;20975;-82
2022/12/18 01:21:36;;;;;;;22.45;9.85;;;;;;;9.81;100.00;101089.78;1757669;81;21069;-82
2022/12/18 01:24:02;;;;;;;21.27;8.38;;;;;;;9.71;100.00;101097.69;1757142;81;21424;-82
2022/12/18 01:26:29;;;;;;;18.15;8.13;;;;;;;9.63;100.00;101097.53;1757601;81;21067;-82
2022/12/18 01:28:56;;;;;;;21.40;8.43;;;;;;;9.15;100.00;101105.98;1757689;81;21039;-82
2022/12/18 01:31:30;;;;;;;20.50;8.20;;;;;;;9.04;100.00;101108.48;1757595;81;21035;-82
2022/12/18 01:33:57;;;;;;;23.83;9.50;;;;;;;8.98;100.00;101108.08;1757224;81;21975;-82
2022/12/18 01:36:28;;;;;;;19.87;8.33;;;;;;;9.00;100.00;101109.17;1757205;81;20988;-82
2022/12/18 01:38:56;;;;;;;20.05;8.03;;;;;;;9.06;100.00;101111.75;1653328;86;21086;-82
2022/12/18 01:41:26;;;;;;;20.00;8.45;;;;;;;8.97;100.00;101123.93;1647391;87;21054;-82
2022/12/18 01:43:57;;;;;;;21.57;9.28;;;;;;;8.61;100.00;101124.45;1627852;88;21687;-82
2022/12/18 01:46:25;;;;;;;26.77;10.72;;;;;;;8.46;100.00;101124.11;1628071;88;21110;-82
2022/12/18 01:48:56;;;;;;;28.05;9.90;;;;;;;8.36;100.00;101138.61;1627832;88;21518;-82
2022/12/18 01:51:23;;;;;;;27.48;11.03;;;;;;;8.15;100.00;101148.84;1627544;88;21156;-82
2022/12/18 01:53:49;;;;;;;32.30;12.25;;;;;;;8.03;100.00;101164.61;1627420;88;21047;-82
2022/12/18 01:56:19;;;;;;;37.80;13.40;;;;;;;7.82;100.00;101175.32;1627644;88;21525;-82
2022/12/18 01:59:01;;;;;;;34.75;13.00;;;;;;;7.86;100.00;101176.53;1627442;88;21154;-82
2022/12/18 02:01:30;;;;;;;30.40;12.15;;;;;;;7.69;100.00;101174.45;1627284;88;21561;-82
2022/12/18 02:03:56;;;;;;;35.43;12.85;;;;;;;7.62;100.00;101180.97;1627509;88;21740;-82
2022/12/18 02:06:37;;;;;;;40.35;12.95;;;;;;;7.51;100.00;101191.39;1627593;88;21105;-81
2022/12/18 02:09:20;;;;;;;41.40;13.90;;;;;;;7.45;100.00;101184.77;1627543;88;21079;-82
2022/12/18 02:12:06;;;;;;;40.70;13.30;;;;;;;7.34;100.00;101190.35;1627504;88;21972;-82
2022/12/18 02:15:08;;;;;;;35.50;13.45;;;;;;;7.40;100.00;101192.66;1627224;88;21051;-82
2022/12/18 02:17:54;;;;;;;41.02;13.43;;;;;;;7.56;100.00;101204.14;1627102;88;21050;-82
2022/12/18 02:20:36;;;;;;;36.42;13.65;;;;;;;7.43;100.00;101201.59;1627477;88;21109;-82
2022/12/18 02:23:34;;;;;;;35.93;13.03;;;;;;;7.12;100.00;101207.41;1627732;88;21046;-82
2022/12/18 02:26:14;;;;;;;36.38;12.70;;;;;;;7.12;100.00;101207.41;1573458;91;21551;-82
2022/12/18 02:28:57;;;;;;;32.50;10.88;;;;;;;6.98;100.00;101214.75;1571115;91;21862;-82
2022/12/18 02:31:27;;;;;;;26.23;9.75;;;;;;;6.86;100.00;101223.20;1553865;92;21062;-82
2022/12/18 02:33:56;;;;;;;30.23;10.85;;;;;;;6.82;100.00;101230.87;1553694;92;21138;-81
2022/12/18 02:36:24;;;;;;;24.32;9.20;;;;;;;6.86;100.00;101241.95;1572943;90;21034;-81
2022/12/18 02:38:52;;;;;;;22.50;9.00;;;;;;;6.88;100.00;101233.69;1577577;90;21185;-81
2022/12/18 02:41:18;;;;;;;21.60;7.92;;;;;;;6.81;100.00;101249.30;1609460;88;21164;-81
2022/12/18 02:43:58;;;;;;;21.17;8.15;;;;;;;6.79;100.00;101250.55;1622891;88;21122;-82
2022/12/18 02:46:35;;;;;;;15.70;6.35;;;;;;;6.66;100.00;101252.01;1622946;88;21656;-82
2022/12/18 02:49:28;;;;;;;11.48;5.28;;;;;;;6.75;100.00;101260.89;1623034;88;21134;-81
2022/12/18 02:52:16;;;;;;;10.48;4.47;;;;;;;6.72;100.00;101265.34;1622676;88;21188;-82
2022/12/18 02:54:53;;;;;;;7.00;4.00;;;;;;;6.82;100.00;101268.86;1622605;88;21656;-82
2022/12/18 02:57:36;;;;;;;10.10;4.25;;;;;;;6.77;100.00;101273.55;1584604;90;21075;-81
2022/12/18 03:00:26;;;;;;;7.70;3.80;;;;;;;6.74;100.00;101279.88;1623044;88;21133;-81
2022/12/18 03:03:12;;;;;;;6.50;3.67;;;;;;;6.70;100.00;101271.42;1646571;85;21026;-82
2022/12/18 03:05:43;;;;;;;7.72;3.58;;;;;;;6.68;100.00;101288.25;1677982;85;21104;-82
2022/12/18 03:08:21;;;;;;;6.22;3.45;;;;;;;6.67;100.00;101282.58;1604456;89;21159;-81
2022/12/18 03:10:55;;;;;;;5.78;3.35;;;;;;;6.61;100.00;101287.46;1605008;89;21640;-82
2022/12/18 03:13:32;;;;;;;6.50;3.62;;;;;;;6.50;100.00;101288.14;1600300;89;21034;-81
2022/12/18 03:16:00;;;;;;;6.28;3.67;;;;;;;6.63;100.00;101293.95;1535531;93;21086;-81
2022/12/18 03:18:34;;;;;;;6.03;3.70;;;;;;;6.58;100.00;101289.23;1537128;93;22517;-81
2022/12/18 03:21:05;;;;;;;6.95;3.60;;;;;;;6.61;100.00;101298.17;1536902;92;21226;-81
2022/12/18 03:23:36;;;;;;;6.83;3.72;;;;;;;6.76;100.00;101301.88;1536547;93;21161;-81
2022/12/18 03:26:07;;;;;;;6.95;3.55;;;;;;;6.72;100.00;101304.70;1558939;90;21106;-81
2022/12/18 03:28:38;;;;;;;6.22;3.52;;;;;;;6.68;100.00;101305.66;1547002;92;21062;-82
2022/12/18 03:31:08;;;;;;;7.83;4.10;;;;;;;6.70;100.00;101309.45;1578332;90;21105;-82
2022/12/18 03:33:54;;;;;;;6.92;3.83;;;;;;;6.68;100.00;101316.38;1578308;90;21093;-82
2022/12/18 03:36:20;;;;;;;5.78;3.42;;;;;;;6.65;100.00;101332.03;1537018;93;21091;-82
2022/12/18 03:38:47;;;;;;;6.58;3.52;;;;;;;6.65;100.00;101326.67;1536898;93;21678;-82
2022/12/18 03:41:30;;;;;;;7.08;4.03;;;;;;;6.52;100.00;101324.91;1529833;93;21395;-81
2022/12/18 03:44:17;;;;;;;4.97;3.40;;;;;;;6.51;100.00;101324.61;1508084;95;21064;-82
2022/12/18 03:47:06;;;;;;;5.25;3.42;;;;;;;6.50;100.00;101330.49;1548864;92;21043;-82
2022/12/18 03:49:49;;;;;;;5.95;3.62;;;;;;;6.47;100.00;101333.59;1556202;92;21567;-80
2022/12/18 03:52:42;;;;;;;6.65;3.17;;;;;;;6.43;100.00;101331.55;1555806;92;21129;-82
2022/12/18 03:55:09;;;;;;;5.73;3.20;;;;;;;6.45;100.00;101337.00;1551947;92;21102;-81
2022/12/18 03:57:37;;;;;;;6.35;3.12;;;;;;;6.40;100.00;101338.67;1552142;92;21210;-82
2022/12/18 04:00:13;;;;;;;5.30;3.15;;;;;;;6.41;100.00;101337.63;1551305;92;21070;-82
2022/12/18 04:02:45;;;;;;;5.58;3.22;;;;;;;6.39;100.00;101341.05;1551751;92;21121;-82
2022/12/18 04:05:12;;;;;;;5.17;3.10;;;;;;;6.43;100.00;101351.11;1533535;92;21079;-81
2022/12/18 04:07:39;;;;;;;4.28;2.65;;;;;;;6.44;100.00;101359.95;1518746;94;21075;-81
2022/12/18 04:10:10;;;;;;;3.30;1.95;;;;;;;6.43;100.00;101371.19;1518591;94;21116;-82
2022/12/18 04:12:37;;;;;;;2.80;2.00;;;;;;;6.33;100.00;101374.33;1519870;93;21090;-82
2022/12/18 04:15:05;;;;;;;2.30;1.50;;;;;;;6.28;100.00;101379.48;1550370;92;21089;-82
2022/12/18 04:17:31;;;;;;;3.67;2.10;;;;;;;6.27;100.00;101376.52;1590573;90;21535;-82
2022/12/18 04:19:57;;;;;;;6.35;1.90;;;;;;;6.26;100.00;101388.23;1555971;90;21098;-82
2022/12/18 04:22:23;;;;;;;3.90;1.57;;;;;;;6.14;100.00;101385.39;1590665;90;21116;-82
2022/12/18 04:24:49;;;;;;;2.70;1.90;;;;;;;6.10;100.00;101380.69;1590523;90;20979;-82
2022/12/18 04:27:15;;;;;;;2.27;1.87;;;;;;;6.22;100.00;101382.20;1590423;90;20943;-82
2022/12/18 04:29:41;;;;;;;2.55;1.80;;;;;;;6.25;100.00;101380.43;1587140;90;21578;-82
2022/12/18 04:32:07;;;;;;;3.58;1.92;;;;;;;6.18;100.00;101387.64;1609182;85;21000;-82
2022/12/18 04:34:33;;;;;;;2.65;1.65;;;;;;;6.17;100.00;101396.72;1697549;83;21031;-82
2022/12/18 04:36:59;;;;;;;2.98;1.70;;;;;;;6.21;100.00;101401.97;1719212;83;20887;-81
2022/12/18 04:39:32;;;;;;;3.17;1.92;;;;;;;6.14;100.00;101400.63;1690807;83;21042;-82
2022/12/18 04:41:59;;;;;;;3.22;2.12;;;;;;;6.03;100.00;101402.61;1736835;81;21095;-82
2022/12/18 04:44:25;;;;;;;3.35;1.98;;;;;;;6.06;100.00;101408.88;1756997;81;21420;-82
2022/12/18 04:46:51;;;;;;;2.62;2.00;;;;;;;6.00;100.00;101399.86;1757082;81;21597;-82
2022/12/18 04:49:17;;;;;;;2.40;1.85;;;;;;;6.05;100.00;101415.27;1756783;81;20888;-82
2022/12/18 04:51:43;;;;;;;4.03;1.90;;;;;;;6.02;100.00;101415.17;1757089;81;21030;-82
2022/12/18 04:54:09;;;;;;;3.50;2.12;;;;;;;6.03;100.00;101418.66;1739983;81;20944;-82
2022/12/18 04:56:35;;;;;;;3.02;2.05;;;;;;;6.13;100.00;101428.43;1739972;81;21010;-82
2022/12/18 04:59:01;;;;;;;3.65;2.33;;;;;;;6.12;100.00;101430.30;1756836;81;21087;-82
2022/12/18 05:05:09;;;;;;;4.17;2.20;;;;;;;6.00;100.00;101425.77;1756849;80;21527;-82
2022/12/18 05:07:35;;;;;;;4.28;2.15;;;;;;;6.00;100.00;101438.66;1756915;81;21055;-82
2022/12/18 05:10:01;;;;;;;3.98;2.20;;;;;;;6.03;100.00;101436.91;1757303;80;20893;-82
2022/12/18 05:16:08;;;;;;;4.60;2.72;;;;;;;5.95;100.00;101454.50;1756643;81;21047;-82
2022/12/18 05:18:35;;;;;;;5.45;2.35;;;;;;;5.95;100.00;101462.53;1739918;81;21666;-82
2022/12/18 05:21:01;;;;;;;3.22;1.92;;;;;;;5.98;100.00;101467.98;1756916;81;20995;-82
2022/12/18 05:23:28;;;;;;;3.50;1.90;;;;;;;5.91;100.00;101476.81;1756875;81;21546;-82
2022/12/18 05:25:58;;;;;;;4.10;2.15;;;;;;;5.87;100.00;101478.23;1757158;81;21066;-82
2022/12/18 05:28:26;;;;;;;3.55;2.25;;;;;;;5.88;100.00;101487.92;1757087;81;20975;-82
2022/12/18 05:30:59;;;;;;;3.52;2.30;;;;;;;5.92;100.00;101490.48;1757172;81;21019;-82
2022/12/18 05:33:28;;;;;;;4.03;2.10;;;;;;;5.88;100.00;101487.08;1757300;81;20984;-82
2022/12/18 05:35:58;;;;;;;3.55;2.20;;;;;;;5.81;100.00;101494.29;1756985;81;21055;-82
2022/12/18 05:38:26;;;;;;;6.25;2.25;;;;;;;5.78;100.00;101496.86;1756995;81;21155;-82
2022/12/18 05:40:53;;;;;;;4.03;2.62;;;;;;;5.76;100.00;101506.11;1756652;81;21079;-82
2022/12/18 05:43:21;;;;;;;3.92;2.27;;;;;;;5.73;100.00;101519.38;1756744;81;21007;-82
2022/12/18 05:45:49;;;;;;;3.95;2.40;;;;;;;5.73;100.00;101516.70;1756845;81;20980;-82
2022/12/18 05:48:16;;;;;;;3.95;2.50;;;;;;;5.75;100.00;101520.52;1757050;81;21487;-83
2022/12/18 05:50:45;;;;;;;4.33;2.72;;;;;;;5.84;100.00;101516.61;1756880;81;21088;-82
2022/12/18 05:53:12;;;;;;;5.53;2.65;;;;;;;5.78;100.00;101527.61;1756838;81;20999;-82
2022/12/18 05:55:41;;;;;;;5.53;3.45;;;;;;;5.78;100.00;101530.81;1756875;81;21022;-82
2022/12/18 05:58:09;;;;;;;6.03;3.70;;;;;;;5.84;100.00;101538.02;1756845;81;21680;-82
2022/12/18 06:03:11;;;;;;;5.50;3.67;;;;;;;5.70;100.00;101552.70;1664504;85;21054;-81
2022/12/18 06:05:41;;;;;;;5.45;3.35;;;;;;;5.63;100.00;101558.55;1664775;85;21039;-82
2022/12/18 06:08:07;;;;;;;4.78;3.30;;;;;;;5.66;100.00;101554.14;1664417;85;21334;-82
2022/12/18 06:10:33;;;;;;;5.53;3.50;;;;;;;5.76;100.00;101572.45;1642478;85;21133;-83
2022/12/18 06:12:59;;;;;;;6.10;3.70;;;;;;;5.79;100.00;101573.90;1667252;85;20904;-82
2022/12/18 06:15:26;;;;;;;5.58;3.65;;;;;;;5.60;100.00;101571.52;1667209;85;21070;-83
2022/12/18 06:17:52;;;;;;;6.95;4.03;;;;;;;5.39;100.00;101568.48;1667231;85;21094;-82
2022/12/18 06:20:18;;;;;;;5.75;3.80;;;;;;;5.40;100.00;101574.95;1667283;86;20995;-82
2022/12/18 06:26:24;;;;;;;6.60;3.95;;;;;;;5.27;100.00;101588.80;1666764;85;21019;-81
2022/12/18 06:32:31;;;;;;;7.83;4.28;;;;;;;5.37;100.00;101594.06;1664683;85;21066;-83
2022/12/18 06:34:57;;;;;;;5.65;3.35;;;;;;;5.32;100.00;101601.03;1664900;86;20915;-83
2022/12/18 06:37:33;;;;;;;6.17;3.72;;;;;;;5.26;100.00;101613.34;1665075;86;21015;-83
2022/12/18 06:40:00;;;;;;;7.45;3.90;;;;;;;5.25;100.00;101618.38;1664855;85;20983;-83
2022/12/18 06:42:28;;;;;;;6.85;4.00;;;;;;;5.18;100.00;101612.20;1661669;85;21136;-83
2022/12/18 06:44:54;;;;;;;8.25;4.17;;;;;;;5.11;100.00;101610.81;1657425;86;21101;-84
2022/12/18 06:47:20;;;;;;;9.53;4.22;;;;;;;5.14;100.00;101606.41;1657714;86;21139;-83
2022/12/18 06:49:48;;;;;;;9.43;4.67;;;;;;;5.19;100.00;101623.19;1657663;86;20896;-83
2022/12/18 06:52:14;;;;;;;7.37;4.25;;;;;;;5.18;100.00;101626.89;1576945;91;21000;-81
2022/12/18 06:54:40;;;;;;;9.10;4.60;;;;;;;5.27;100.00;101634.23;1576628;91;21210;-80
2022/12/18 06:57:06;;;;;;;9.40;5.10;;;;;;;5.22;100.00;101632.96;1576904;91;21114;-82
2022/12/18 06:59:35;;;;;;;12.05;5.37;;;;;;;5.17;100.00;101636.73;1599597;86;22638;-81
2022/12/18 07:02:02;;;;;;;16.67;6.17;;;;;;;5.21;100.00;101629.17;1654645;86;21109;-82
2022/12/18 07:04:30;;;;;;;19.98;7.10;;;;;;;5.09;100.00;101635.59;1654537;86;21022;-82
2022/12/18 07:06:56;;;;;;;19.15;7.62;;;;;;;5.06;100.00;101633.80;1655150;86;21693;-81
2022/12/18 07:09:21;;;;;;;22.62;8.20;;;;;;;5.10;100.00;101640.41;1654901;86;20875;-81
2022/12/18 07:19:08;;;;;;;24.23;8.33;;;;;;;5.04;100.00;101643.36;1654652;86;21092;-82
2022/12/18 07:21:34;;;;;;;27.65;8.93;;;;;;;5.13;100.00;101648.03;1655011;86;21888;-82
2022/12/18 07:24:00;;;;;;;23.02;8.50;;;;;;;5.15;100.00;101648.67;1654922;86;20867;-81
2022/12/18 07:26:26;;;;;;;26.77;9.05;;;;;;;5.17;100.00;101657.29;1654923;86;21455;-82
2022/12/18 07:28:57;;;;;;;25.27;9.28;;;;;;;5.18;100.00;101668.31;1667569;82;21011;-82
2022/12/18 07:31:25;;;;;;;25.45;9.78;;;;;;;5.22;100.00;101674.37;1751945;82;20977;-82
2022/12/18 07:33:51;;;;;;;32.00;9.93;;;;;;;5.21;100.00;101670.59;1751585;82;21082;-82
2022/12/18 07:39:22;;;;;;;29.55;11.20;;;;;;;5.21;100.00;101674.08;1751267;82;20993;-81
2022/12/18 07:42:30;;;;;;;30.23;11.30;;;;;;;5.13;100.00;101691.59;1751207;82;20861;-82
2022/12/18 07:44:16;;;;;;;27.50;11.00;;;;;;;5.17;100.00;101696.03;1741862;82;21472;-82
2022/12/18 07:46:42;;;;;;;32.35;11.85;;;;;;;5.11;100.00;101706.98;1743823;82;21035;-82
2022/12/18 07:52:48;;;;;;;33.33;11.22;;;;;;;5.08;100.00;101696.70;1743435;82;20953;-82
2022/12/18 07:55:14;;;;;;;30.88;11.10;;;;;;;4.99;100.00;101700.03;1743780;81;21475;-82
2022/12/18 07:57:40;;;;;;;29.25;10.45;;;;;;;5.06;100.00;101705.44;1743572;82;21521;-82
2022/12/18 08:00:08;;;;;;;31.73;11.40;;;;;;;5.13;100.00;101703.63;1743635;82;21136;-82
2022/12/18 08:02:34;;;;;;;34.03;12.90;;;;;;;5.04;100.00;101698.13;1743589;82;21024;-83
2022/12/18 08:05:00;;;;;;;27.15;10.90;;;;;;;4.97;100.00;101702.09;1743737;82;21500;-82
2022/12/18 08:07:26;;;;;;;25.15;9.93;;;;;;;4.97;100.00;101700.76;1743663;81;20973;-82
2022/12/18 08:09:52;;;;;;;23.62;9.55;;;;;;;4.88;100.00;101707.27;1743752;81;20968;-82
2022/12/18 08:12:18;;;;;;;24.80;9.85;;;;;;;4.83;100.00;101710.20;1743429;81;20998;-82
2022/12/18 08:14:44;;;;;;;23.47;9.80;;;;;;;4.83;100.00;101719.55;1743526;81;20947;-82
2022/12/18 08:17:09;;;;;;;26.40;10.38;;;;;;;4.82;100.00;101720.04;1743596;81;20988;-82
2022/12/18 08:19:35;;;;;;;24.52;9.23;;;;;;;4.89;100.00;101727.61;1743486;81;20952;-82
2022/12/18 08:22:01;;;;;;;22.60;9.53;;;;;;;4.89;100.00;101727.61;1717806;82;20873;-82
2022/12/18 08:24:27;;;;;;;25.72;8.70;;;;;;;4.87;100.00;101730.97;1743625;81;21852;-82
2022/12/18 08:30:36;;;;;;;22.40;8.80;;;;;;;4.97;100.00;101728.80;1743341;82;21568;-82
2022/12/18 08:33:02;;;;;;;24.20;9.48;;;;;;;4.81;100.00;101738.42;1743518;81;21008;-81
2022/12/18 08:35:28;;;;;;;26.45;9.98;;;;;;;4.87;100.00;101732.30;1743654;81;21071;-82
2022/12/18 08:37:54;;;;;;;23.67;9.33;;;;;;;4.82;100.00;101735.23;1743627;82;21080;-82
2022/12/18 08:40:20;;;;;;;33.18;11.53;;;;;;;4.88;100.00;101743.33;1743617;81;20881;-82
2022/12/18 08:45:40;;;;;;;39.23;12.05;;;;;;;4.89;100.00;101744.97;1743365;82;21512;-82
2022/12/18 08:48:06;;;;;;;32.17;11.85;;;;;;;4.87;100.00;101751.00;1738505;82;21020;-82
2022/12/18 08:50:32;;;;;;;39.50;13.53;;;;;;;4.92;100.00;101751.26;1743582;81;21046;-82
2022/12/18 08:52:58;;;;;;;36.73;12.95;;;;;;;4.84;100.00;101754.58;1743537;82;21631;-82
2022/12/18 08:55:24;;;;;;;39.13;13.60;;;;;;;5.01;100.00;101758.10;1743684;82;20893;-82
2022/12/18 08:57:51;;;;;;;41.42;13.75;;;;;;;4.96;100.00;101756.52;1743321;81;21059;-82
2022/12/18 09:00:17;;;;;;;47.33;14.68;;;;;;;4.85;100.00;101757.03;1743519;82;20977;-82
2022/12/18 09:02:43;;;;;;;48.38;15.45;;;;;;;4.88;100.00;101755.83;1743834;82;21064;-82
2022/12/18 09:05:09;;;;;;;45.95;15.18;;;;;;;4.87;100.00;101755.01;1743664;81;20889;-81
2022/12/18 09:07:36;;;;;;;46.33;15.10;;;;;;;4.89;100.00;101760.17;1743485;80;21477;-82
2022/12/18 09:10:02;;;;;;;50.92;16.50;;;;;;;4.87;100.00;101767.54;1743614;81;20889;-81
2022/12/18 09:12:28;;;;;;;44.73;15.18;;;;;;;4.80;100.00;101762.67;1743489;81;21094;-82
2022/12/18 09:14:54;;;;;;;45.92;15.38;;;;;;;4.68;100.00;101755.17;1743693;81;21097;-81
2022/12/18 09:17:20;;;;;;;39.92;14.23;;;;;;;4.65;100.00;101765.41;1743817;82;20940;-82
2022/12/18 09:19:46;;;;;;;43.40;13.95;;;;;;;4.58;100.00;101768.52;1743629;81;20948;-82
2022/12/18 09:22:12;;;;;;;35.85;12.65;;;;;;;4.75;100.00;101765.39;1743855;82;20984;-81
2022/12/18 09:24:38;;;;;;;36.98;13.53;;;;;;;4.68;100.00;101764.52;1743872;81;20870;-82
2022/12/18 09:27:03;;;;;;;36.65;12.88;;;;;;;4.74;100.00;101761.08;1743821;81;21941;-81
2022/12/18 09:29:30;;;;;;;36.63;13.35;;;;;;;4.75;100.00;101765.90;1743654;81;20897;-81
2022/12/18 09:31:56;;;;;;;33.15;11.30;;;;;;;4.61;100.00;101762.80;1743737;82;21063;-82
2022/12/18 09:34:22;;;;;;;34.75;12.88;;;;;;;4.67;100.00;101757.50;1743757;81;21017;-81
2022/12/18 09:36:48;;;;;;;34.13;12.60;;;;;;;4.59;100.00;101765.66;1743720;81;21035;-82
2022/12/18 09:39:14;;;;;;;31.70;11.95;;;;;;;4.69;100.00;101758.15;1743750;81;21890;-82
2022/12/18 09:41:54;;;;;;;34.23;12.30;;;;;;;4.74;100.00;101758.92;1743401;81;20961;-81
2022/12/18 09:44:28;;;;;;;28.05;10.95;;;;;;;4.72;100.00;101760.44;1681102;83;21532;-81
2022/12/18 09:47:12;;;;;;;33.05;10.95;;;;;;;4.80;100.00;101758.66;1678923;85;21076;-82
2022/12/18 09:49:45;;;;;;;26.48;9.48;;;;;;;4.86;100.00;101762.72;1675613;85;21076;-82
2022/12/18 09:52:19;;;;;;;30.17;10.65;;;;;;;4.89;100.00;101762.33;1676587;85;21165;-82
2022/12/18 09:54:53;;;;;;;27.35;10.20;;;;;;;4.81;100.00;101758.45;1676354;85;21103;-82
2022/12/18 09:57:25;;;;;;;30.62;11.53;;;;;;;4.76;100.00;101747.03;1627612;87;21069;-82
2022/12/18 10:00:05;;;;;;;30.37;11.43;;;;;;;4.87;100.00;101759.53;1627738;87;21042;-81
2022/12/18 10:02:32;;;;;;;32.50;11.28;;;;;;;4.90;100.00;101758.63;1624360;87;21129;-82
2022/12/18 10:05:06;;;;;;;30.77;10.95;;;;;;;4.89;100.00;101755.66;1627726;87;21124;-82
2022/12/18 10:07:49;;;;;;;31.33;11.25;;;;;;;4.89;100.00;101754.31;1567443;91;21131;-81
2022/12/18 10:10:45;;;;;;;32.15;11.85;;;;;;;4.87;100.00;101759.02;1567870;91;21096;-81
2022/12/18 10:13:32;;;;;;;32.23;12.43;;;;;;;4.92;100.00;101765.13;1564976;91;21098;-81
2022/12/18 10:16:15;;;;;;;29.87;11.65;;;;;;;4.90;100.00;101767.16;1564367;91;21149;-82
2022/12/18 10:19:14;;;;;;;33.48;11.90;;;;;;;5.14;100.00;101764.05;1566421;91;21236;-82
2022/12/18 10:21:57;;;;;;;30.12;11.35;;;;;;;5.14;100.00;101758.70;1567515;91;21150;-81
2022/12/18 10:26:14;;;;;;;39.95;14.30;;;;;;;4.70;100.00;101757.63;1813141;79;22129;-80
2022/12/18 10:28:41;;;;;;;33.48;12.70;;;;;;;5.20;100.00;101765.94;1783777;80;21030;-80
2022/12/18 10:31:18;;;;;;;34.70;12.88;;;;;;;5.17;100.00;101764.98;1788558;80;21076;-83
2022/12/18 10:33:44;;;;;;;52.85;19.42;;;;;;;5.19;100.00;101776.31;1710880;83;21051;-82
2022/12/18 10:36:10;;;;;;;39.98;14.35;;;;;;;5.21;100.00;101775.63;1710846;83;21645;-83
2022/12/18 10:38:36;;;;;;;40.92;14.95;;;;;;;5.12;100.00;101770.62;1710959;83;21098;-82
2022/12/18 10:41:21;;;;;;;38.13;14.03;;;;;;;5.10;100.00;101774.00;1710956;83;21043;-82
2022/12/18 10:43:50;;;;;;;38.60;13.98;;;;;;;5.01;100.00;101774.13;1709607;83;21143;-82
2022/12/18 10:46:21;;;;;;;38.88;14.25;;;;;;;5.10;100.00;101773.48;1706830;83;21031;-83
2022/12/18 10:48:52;;;;;;;40.90;14.98;;;;;;;4.93;100.00;101776.12;1685814;83;21550;-82
2022/12/18 10:51:33;;;;;;;40.65;15.32;;;;;;;4.86;100.00;101782.74;1711036;83;21059;-83
2022/12/18 10:54:07;;;;;;;39.75;15.55;;;;;;;4.93;100.00;101784.95;1703949;84;21194;-82
2022/12/18 10:56:36;;;;;;;42.65;15.10;;;;;;;4.96;100.00;101781.07;1668247;85;21118;-82
2022/12/18 10:59:06;;;;;;;46.05;16.82;;;;;;;4.79;100.00;101783.18;1667842;86;21061;-83
2022/12/18 11:01:54;;;;;;;53.42;16.60;;;;;;;4.88;100.00;101790.55;1667935;86;20975;-83
2022/12/18 11:04:31;;;;;;;40.12;15.13;;;;;;;4.97;100.00;101784.05;1640951;87;21121;-83
2022/12/18 11:07:06;;;;;;;46.85;16.48;;;;;;;4.85;100.00;101781.08;1641110;87;21051;-83
2022/12/18 11:09:39;;;;;;;48.02;17.87;;;;;;;4.66;100.00;101788.41;1641253;87;21429;-82
2022/12/18 11:12:18;;;;;;;44.15;16.73;;;;;;;4.59;100.00;101797.70;1564064;91;21048;-83
2022/12/18 11:14:51;;;;;;;45.83;17.42;;;;;;;4.53;100.00;101800.62;1538962;93;21162;-83
2022/12/18 11:17:25;;;;;;;48.10;16.73;;;;;;;4.57;100.00;101805.06;1539217;93;21518;-83
2022/12/18 11:19:58;;;;;;;46.00;16.97;;;;;;;4.52;100.00;101803.47;1513839;94;21538;-82
2022/12/18 11:22:33;;;;;;;45.73;15.13;;;;;;;4.62;100.00;101806.66;1514544;94;21197;-83
2022/12/18 11:25:14;;;;;;;45.70;15.72;;;;;;;4.64;100.00;101807.80;1511228;94;21218;-83
2022/12/18 11:29:21;;;;;;;36.40;14.65;;;;;;;4.24;100.00;101808.72;1795627;79;22134;-80
2022/12/18 11:31:47;;;;;;;38.58;13.03;;;;;;;4.48;100.00;101804.88;1752282;81;21527;-80
2022/12/18 11:34:32;;;;;;;36.48;13.78;;;;;;;4.33;100.00;101815.08;1757236;81;21052;-79
2022/12/18 11:37:01;;;;;;;41.25;13.68;;;;;;;4.37;100.00;101805.36;1756949;81;21071;-80
2022/12/18 11:39:52;;;;;;;36.38;13.32;;;;;;;4.31;100.00;101813.61;1738186;81;20988;-80
2022/12/18 11:42:57;;;;;;;41.18;14.35;;;;;;;4.24;100.00;101816.72;1755094;81;21067;-82
2022/12/18 11:45:36;;;;;;;40.15;14.03;;;;;;;4.23;100.00;101815.05;1757575;80;20992;-82
2022/12/18 11:48:07;;;;;;;40.78;14.75;;;;;;;4.23;100.00;101815.88;1757918;81;22160;-83
2022/12/18 11:50:45;;;;;;;35.40;12.65;;;;;;;4.11;100.00;101818.70;1753267;81;21035;-83
2022/12/18 11:53:12;;;;;;;36.45;14.05;;;;;;;4.13;100.00;101819.87;1755059;81;20995;-82
2022/12/18 11:56:05;;;;;;;46.20;15.00;;;;;;;4.08;100.00;101821.75;1757408;81;21039;-82
2022/12/18 11:58:58;;;;;;;34.85;12.85;;;;;;;4.10;100.00;101839.73;1737369;82;21039;-82
2022/12/18 12:01:53;;;;;;;38.45;14.65;;;;;;;4.16;100.00;101840.83;1734702;82;21135;-83
2022/12/18 12:04:56;;;;;;;42.67;15.00;;;;;;;3.99;100.00;101846.87;1737488;82;21067;-82
2022/12/18 12:07:46;;;;;;;42.48;15.15;;;;;;;4.02;100.00;101850.50;1737507;82;21075;-82
2022/12/18 12:10:23;;;;;;;39.63;14.33;;;;;;;3.90;100.00;101844.80;1732186;82;21098;-82
2022/12/18 12:13:14;;;;;;;36.00;13.20;;;;;;;3.82;100.00;101849.74;1734740;82;21035;-83
2022/12/18 12:16:17;;;;;;;34.65;13.18;;;;;;;3.75;100.00;101851.47;1720367;83;22022;-82
2022/12/18 12:19:17;;;;;;;31.30;11.93;;;;;;;3.72;100.00;101864.34;1696116;83;20940;-82
2022/12/18 12:21:51;;;;;;;36.25;12.30;;;;;;;3.67;100.00;101870.21;1665481;84;21679;-83